sensor_id;sensor_type;location;lat;lon;timestamp;pressure;altitude;pressure_sealevel;temperature;humidity
54042;BME280;41156;51.508;5.406;2023-05-25T00:00:26;102431.53;;;10.73;89.70
54042;BME280;41156;51.508;5.406;2023-05-25T00:03:26;102436.75;;;10.74;89.38
54042;BME280;41156;51.508;5.406;2023-05-25T00:06:27;102430.50;;;10.74;89.95
54042;BME280;41156;51.508;5.406;2023-05-25T00:09:28;102428.81;;;10.73;90.04
54042;BME280;41156;51.508;5.406;2023-05-25T00:12:29;102432.53;;;10.72;90.14
54042;BME280;41156;51.508;5.406;2023-05-25T00:15:29;102429.69;;;10.65;90.43
54042;BME280;41156;51.508;5.406;2023-05-25T00:18:31;102432.09;;;10.60;91.22
54042;BME280;41156;51.508;5.406;2023-05-25T00:21:32;102423.31;;;10.58;90.93
54042;BME280;41156;51.508;5.406;2023-05-25T00:24:38;102431.44;;;10.58;91.90
54042;BME280;41156;51.508;5.406;2023-05-25T00:27:38;102432.78;;;10.54;91.77
54042;BME280;41156;51.508;5.406;2023-05-25T00:30:39;102430.44;;;10.51;91.85
54042;BME280;41156;51.508;5.406;2023-05-25T00:33:39;102434.16;;;10.50;92.37
54042;BME280;41156;51.508;5.406;2023-05-25T00:36:39;102427.22;;;10.47;92.14
54042;BME280;41156;51.508;5.406;2023-05-25T00:39:42;102434.69;;;10.45;92.46
54042;BME280;41156;51.508;5.406;2023-05-25T00:42:42;102436.56;;;10.45;92.44
54042;BME280;41156;51.508;5.406;2023-05-25T00:45:43;102441.97;;;10.45;92.79
54042;BME280;41156;51.508;5.406;2023-05-25T00:48:44;102437.72;;;10.42;94.32
54042;BME280;41156;51.508;5.406;2023-05-25T00:51:45;102435.91;;;10.43;93.56
54042;BME280;41156;51.508;5.406;2023-05-25T00:54:47;102433.19;;;10.43;93.65
54042;BME280;41156;51.508;5.406;2023-05-25T00:57:50;102433.34;;;10.41;92.97
54042;BME280;41156;51.508;5.406;2023-05-25T01:00:55;102435.19;;;10.41;94.83
54042;BME280;41156;51.508;5.406;2023-05-25T01:03:57;102436.06;;;10.41;93.68
54042;BME280;41156;51.508;5.406;2023-05-25T01:06:59;102435.19;;;10.41;94.33
54042;BME280;41156;51.508;5.406;2023-05-25T01:10:01;102438.94;;;10.40;94.26
54042;BME280;41156;51.508;5.406;2023-05-25T01:13:05;102441.63;;;10.40;95.00
54042;BME280;41156;51.508;5.406;2023-05-25T01:16:07;102439.09;;;10.38;94.36
54042;BME280;41156;51.508;5.406;2023-05-25T01:19:07;102438.63;;;10.34;94.87
54042;BME280;41156;51.508;5.406;2023-05-25T01:22:14;102435.91;;;10.34;94.68
54042;BME280;41156;51.508;5.406;2023-05-25T01:25:22;102445.88;;;10.34;95.42
54042;BME280;41156;51.508;5.406;2023-05-25T01:28:29;102449.91;;;10.30;95.13
54042;BME280;41156;51.508;5.406;2023-05-25T01:31:30;102444.03;;;10.26;94.11
54042;BME280;41156;51.508;5.406;2023-05-25T01:34:33;102453.47;;;10.22;94.82
54042;BME280;41156;51.508;5.406;2023-05-25T01:37:34;102458.38;;;10.18;95.04
54042;BME280;41156;51.508;5.406;2023-05-25T01:40:36;102453.50;;;10.14;94.69
54042;BME280;41156;51.508;5.406;2023-05-25T01:43:36;102459.94;;;10.13;94.72
54042;BME280;41156;51.508;5.406;2023-05-25T01:46:38;102452.00;;;10.11;95.96
54042;BME280;41156;51.508;5.406;2023-05-25T01:53:15;102462.97;;;10.10;97.13
54042;BME280;41156;51.508;5.406;2023-05-25T01:56:18;102462.13;;;10.09;95.17
54042;BME280;41156;51.508;5.406;2023-05-25T01:59:21;102466.66;;;10.09;95.13
54042;BME280;41156;51.508;5.406;2023-05-25T02:02:23;102475.09;;;10.06;95.34
54042;BME280;41156;51.508;5.406;2023-05-25T02:05:24;102469.22;;;10.02;95.55
54042;BME280;41156;51.508;5.406;2023-05-25T02:08:25;102467.88;;;9.98;95.82
54042;BME280;41156;51.508;5.406;2023-05-25T02:11:25;102468.38;;;9.93;95.81
54042;BME280;41156;51.508;5.406;2023-05-25T02:14:26;102462.31;;;9.91;95.73
54042;BME280;41156;51.508;5.406;2023-05-25T02:17:27;102469.06;;;9.87;96.62
54042;BME280;41156;51.508;5.406;2023-05-25T02:20:27;102461.31;;;9.84;96.27
54042;BME280;41156;51.508;5.406;2023-05-25T02:23:28;102463.00;;;9.77;96.59
54042;BME280;41156;51.508;5.406;2023-05-25T02:26:28;102460.81;;;9.72;96.69
54042;BME280;41156;51.508;5.406;2023-05-25T02:29:29;102459.31;;;9.70;96.06
54042;BME280;41156;51.508;5.406;2023-05-25T02:32:29;102461.50;;;9.66;96.71
54042;BME280;41156;51.508;5.406;2023-05-25T02:35:30;102464.22;;;9.66;96.67
54042;BME280;41156;51.508;5.406;2023-05-25T02:38:30;102464.53;;;9.63;96.78
54042;BME280;41156;51.508;5.406;2023-05-25T02:41:30;102462.16;;;9.60;96.85
54042;BME280;41156;51.508;5.406;2023-05-25T02:44:31;102461.00;;;9.54;96.95
54042;BME280;41156;51.508;5.406;2023-05-25T02:47:31;102470.59;;;9.49;96.81
54042;BME280;41156;51.508;5.406;2023-05-25T02:50:31;102467.72;;;9.42;98.05
54042;BME280;41156;51.508;5.406;2023-05-25T02:53:31;102468.06;;;9.39;98.03
54042;BME280;41156;51.508;5.406;2023-05-25T02:56:32;102473.78;;;9.36;98.57
54042;BME280;41156;51.508;5.406;2023-05-25T02:59:32;102472.78;;;9.37;98.30
54042;BME280;41156;51.508;5.406;2023-05-25T03:02:32;102470.09;;;9.37;98.43
54042;BME280;41156;51.508;5.406;2023-05-25T03:05:33;102465.69;;;9.36;98.14
54042;BME280;41156;51.508;5.406;2023-05-25T03:08:34;102466.72;;;9.35;98.02
54042;BME280;41156;51.508;5.406;2023-05-25T03:11:34;102469.56;;;9.33;98.46
54042;BME280;41156;51.508;5.406;2023-05-25T03:14:35;102469.06;;;9.30;98.33
54042;BME280;41156;51.508;5.406;2023-05-25T03:17:35;102479.00;;;9.29;98.72
54042;BME280;41156;51.508;5.406;2023-05-25T03:20:35;102488.59;;;9.23;99.21
54042;BME280;41156;51.508;5.406;2023-05-25T03:23:36;102482.19;;;9.16;99.24
54042;BME280;41156;51.508;5.406;2023-05-25T03:26:37;102484.19;;;9.14;99.60
54042;BME280;41156;51.508;5.406;2023-05-25T03:29:37;102485.22;;;9.13;99.54
54042;BME280;41156;51.508;5.406;2023-05-25T03:32:37;102496.34;;;9.10;99.78
54042;BME280;41156;51.508;5.406;2023-05-25T03:35:38;102497.34;;;9.09;99.57
54042;BME280;41156;51.508;5.406;2023-05-25T03:38:38;102499.19;;;9.08;99.90
54042;BME280;41156;51.508;5.406;2023-05-25T03:41:38;102497.69;;;9.06;99.95
54042;BME280;41156;51.508;5.406;2023-05-25T03:44:38;102501.38;;;9.05;99.75
54042;BME280;41156;51.508;5.406;2023-05-25T03:47:39;102503.25;;;9.04;100.00
54042;BME280;41156;51.508;5.406;2023-05-25T03:50:39;102506.78;;;9.05;100.00
54042;BME280;41156;51.508;5.406;2023-05-25T03:53:39;102508.47;;;9.06;100.00
54042;BME280;41156;51.508;5.406;2023-05-25T03:56:40;102510.13;;;9.07;100.00
54042;BME280;41156;51.508;5.406;2023-05-25T03:59:40;102515.53;;;9.07;100.00
54042;BME280;41156;51.508;5.406;2023-05-25T04:02:40;102526.31;;;9.07;100.00
54042;BME280;41156;51.508;5.406;2023-05-25T04:05:41;102523.31;;;9.10;100.00
54042;BME280;41156;51.508;5.406;2023-05-25T04:08:41;102519.59;;;9.11;100.00
54042;BME280;41156;51.508;5.406;2023-05-25T04:11:43;102527.53;;;9.13;100.00
54042;BME280;41156;51.508;5.406;2023-05-25T04:14:44;102521.78;;;9.16;100.00
54042;BME280;41156;51.508;5.406;2023-05-25T04:17:45;102517.59;;;9.13;100.00
54042;BME280;41156;51.508;5.406;2023-05-25T04:20:45;102524.66;;;9.14;100.00
54042;BME280;41156;51.508;5.406;2023-05-25T04:23:46;102526.34;;;9.15;100.00
54042;BME280;41156;51.508;5.406;2023-05-25T04:26:46;102527.19;;;9.16;100.00
54042;BME280;41156;51.508;5.406;2023-05-25T04:29:46;102529.56;;;9.19;100.00
54042;BME280;41156;51.508;5.406;2023-05-25T04:32:49;102526.53;;;9.22;100.00
54042;BME280;41156;51.508;5.406;2023-05-25T04:35:49;102534.13;;;9.26;100.00
54042;BME280;41156;51.508;5.406;2023-05-25T04:38:50;102530.25;;;9.29;100.00
54042;BME280;41156;51.508;5.406;2023-05-25T04:41:51;102527.22;;;9.32;100.00
54042;BME280;41156;51.508;5.406;2023-05-25T04:44:52;102533.13;;;9.36;100.00
54042;BME280;41156;51.508;5.406;2023-05-25T04:47:54;102528.59;;;9.36;100.00
54042;BME280;41156;51.508;5.406;2023-05-25T04:50:55;102536.00;;;9.42;100.00
54042;BME280;41156;51.508;5.406;2023-05-25T04:53:56;102534.84;;;9.45;100.00
54042;BME280;41156;51.508;5.406;2023-05-25T04:56:58;102534.88;;;9.53;100.00
54042;BME280;41156;51.508;5.406;2023-05-25T04:59:58;102542.63;;;9.56;100.00
54042;BME280;41156;51.508;5.406;2023-05-25T05:02:58;102540.28;;;9.61;100.00
54042;BME280;41156;51.508;5.406;2023-05-25T05:05:59;102550.59;;;9.66;100.00
54042;BME280;41156;51.508;5.406;2023-05-25T05:09:00;102551.41;;;9.75;100.00
54042;BME280;41156;51.508;5.406;2023-05-25T05:12:00;102554.78;;;9.77;100.00
54042;BME280;41156;51.508;5.406;2023-05-25T05:15:02;102553.28;;;9.82;100.00
54042;BME280;41156;51.508;5.406;2023-05-25T05:18:02;102551.78;;;9.88;100.00
54042;BME280;41156;51.508;5.406;2023-05-25T05:21:03;102551.09;;;9.94;100.00
54042;BME280;41156;51.508;5.406;2023-05-25T05:24:03;102558.34;;;10.02;100.00
54042;BME280;41156;51.508;5.406;2023-05-25T05:27:03;102556.50;;;10.11;100.00
54042;BME280;41156;51.508;5.406;2023-05-25T05:30:04;102556.13;;;10.22;100.00
54042;BME280;41156;51.508;5.406;2023-05-25T05:33:05;102563.94;;;10.33;100.00
54042;BME280;41156;51.508;5.406;2023-05-25T05:36:05;102570.66;;;10.46;100.00
54042;BME280;41156;51.508;5.406;2023-05-25T05:39:05;102569.47;;;10.57;100.00
54042;BME280;41156;51.508;5.406;2023-05-25T05:42:06;102572.47;;;10.70;100.00
54042;BME280;41156;51.508;5.406;2023-05-25T05:45:07;102569.41;;;10.81;100.00
54042;BME280;41156;51.508;5.406;2023-05-25T05:48:07;102574.59;;;10.91;100.00
54042;BME280;41156;51.508;5.406;2023-05-25T05:51:10;102587.59;;;10.96;100.00
54042;BME280;41156;51.508;5.406;2023-05-25T05:54:11;102590.44;;;11.02;100.00
54042;BME280;41156;51.508;5.406;2023-05-25T05:57:11;102590.56;;;11.09;100.00
54042;BME280;41156;51.508;5.406;2023-05-25T06:00:12;102600.84;;;11.22;100.00
54042;BME280;41156;51.508;5.406;2023-05-25T06:03:12;102597.75;;;11.33;100.00
54042;BME280;41156;51.508;5.406;2023-05-25T06:06:13;102612.56;;;11.45;100.00
54042;BME280;41156;51.508;5.406;2023-05-25T06:09:13;102613.19;;;11.56;100.00
54042;BME280;41156;51.508;5.406;2023-05-25T06:12:14;102609.72;;;11.70;100.00
54042;BME280;41156;51.508;5.406;2023-05-25T06:15:14;102609.25;;;11.90;100.00
54042;BME280;41156;51.508;5.406;2023-05-25T06:18:15;102608.91;;;11.93;100.00
54042;BME280;41156;51.508;5.406;2023-05-25T06:21:15;102607.63;;;12.03;100.00
54042;BME280;41156;51.508;5.406;2023-05-25T06:24:15;102613.00;;;12.12;100.00
54042;BME280;41156;51.508;5.406;2023-05-25T06:27:16;102615.63;;;12.20;100.00
54042;BME280;41156;51.508;5.406;2023-05-25T06:30:16;102616.69;;;12.34;100.00
54042;BME280;41156;51.508;5.406;2023-05-25T06:33:16;102626.56;;;12.50;100.00
54042;BME280;41156;51.508;5.406;2023-05-25T06:36:17;102631.34;;;12.63;100.00
54042;BME280;41156;51.508;5.406;2023-05-25T06:39:17;102631.28;;;12.86;100.00
54042;BME280;41156;51.508;5.406;2023-05-25T06:42:17;102626.16;;;13.06;99.54
54042;BME280;41156;51.508;5.406;2023-05-25T06:45:18;102622.19;;;13.23;99.26
54042;BME280;41156;51.508;5.406;2023-05-25T06:48:18;102627.44;;;13.40;98.11
54042;BME280;41156;51.508;5.406;2023-05-25T06:51:18;102636.28;;;13.63;97.53
54042;BME280;41156;51.508;5.406;2023-05-25T06:54:19;102634.63;;;13.84;96.19
54042;BME280;41156;51.508;5.406;2023-05-25T06:57:19;102630.50;;;13.88;92.90
54042;BME280;41156;51.508;5.406;2023-05-25T07:00:20;102629.59;;;13.81;94.51
54042;BME280;41156;51.508;5.406;2023-05-25T07:03:20;102628.03;;;13.93;94.66
54042;BME280;41156;51.508;5.406;2023-05-25T07:06:20;102643.19;;;14.02;93.10
54042;BME280;41156;51.508;5.406;2023-05-25T07:09:21;102639.94;;;14.14;93.72
54042;BME280;41156;51.508;5.406;2023-05-25T07:12:21;102646.28;;;14.21;90.31
54042;BME280;41156;51.508;5.406;2023-05-25T07:15:22;102654.31;;;14.29;92.02
54042;BME280;41156;51.508;5.406;2023-05-25T07:18:23;102651.97;;;14.48;91.26
54042;BME280;41156;51.508;5.406;2023-05-25T07:21:23;102650.44;;;14.67;89.24
54042;BME280;41156;51.508;5.406;2023-05-25T07:24:23;102652.72;;;14.63;90.07
54042;BME280;41156;51.508;5.406;2023-05-25T07:27:24;102656.84;;;14.80;89.50
54042;BME280;41156;51.508;5.406;2023-05-25T07:30:24;102659.50;;;15.02;88.88
54042;BME280;41156;51.508;5.406;2023-05-25T07:33:25;102663.41;;;15.34;86.51
54042;BME280;41156;51.508;5.406;2023-05-25T07:36:25;102660.56;;;15.56;85.27
54042;BME280;41156;51.508;5.406;2023-05-25T07:39:25;102659.19;;;15.80;85.27
54042;BME280;41156;51.508;5.406;2023-05-25T07:42:25;102661.75;;;15.88;85.14
54042;BME280;41156;51.508;5.406;2023-05-25T07:45:32;102658.66;;;16.12;82.67
54042;BME280;41156;51.508;5.406;2023-05-25T07:48:33;102655.94;;;16.32;81.73
54042;BME280;41156;51.508;5.406;2023-05-25T07:51:33;102661.81;;;16.55;81.42
54042;BME280;41156;51.508;5.406;2023-05-25T07:54:33;102665.38;;;16.69;77.26
54042;BME280;41156;51.508;5.406;2023-05-25T07:57:34;102661.56;;;16.97;75.52
54042;BME280;41156;51.508;5.406;2023-05-25T08:00:34;102648.25;;;17.34;78.46
54042;BME280;41156;51.508;5.406;2023-05-25T08:03:35;102662.66;;;17.54;76.56
54042;BME280;41156;51.508;5.406;2023-05-25T08:06:35;102662.63;;;17.61;76.72
54042;BME280;41156;51.508;5.406;2023-05-25T08:09:36;102662.84;;;17.60;76.61
54042;BME280;41156;51.508;5.406;2023-05-25T08:12:36;102659.56;;;17.37;75.38
54042;BME280;41156;51.508;5.406;2023-05-25T08:15:36;102663.41;;;17.23;76.13
54042;BME280;41156;51.508;5.406;2023-05-25T08:18:36;102666.72;;;17.32;76.42
54042;BME280;41156;51.508;5.406;2023-05-25T08:21:37;102673.34;;;17.63;74.34
54042;BME280;41156;51.508;5.406;2023-05-25T08:24:39;102674.44;;;18.00;73.01
54042;BME280;41156;51.508;5.406;2023-05-25T08:27:40;102674.22;;;17.95;70.81
54042;BME280;41156;51.508;5.406;2023-05-25T08:30:40;102666.59;;;18.36;67.58
54042;BME280;41156;51.508;5.406;2023-05-25T08:33:42;102661.13;;;19.04;66.72
54042;BME280;41156;51.508;5.406;2023-05-25T08:36:43;102665.31;;;19.26;66.86
54042;BME280;41156;51.508;5.406;2023-05-25T08:39:44;102670.56;;;19.27;59.72
54042;BME280;41156;51.508;5.406;2023-05-25T08:42:44;102677.78;;;19.21;66.28
54042;BME280;41156;51.508;5.406;2023-05-25T08:45:45;102678.94;;;18.95;67.08
54042;BME280;41156;51.508;5.406;2023-05-25T08:48:46;102677.81;;;18.53;67.21
54042;BME280;41156;51.508;5.406;2023-05-25T08:51:51;102676.94;;;18.34;65.28
54042;BME280;41156;51.508;5.406;2023-05-25T08:54:52;102680.56;;;18.27;66.73
54042;BME280;41156;51.508;5.406;2023-05-25T08:58:01;102676.13;;;18.52;64.21
54042;BME280;41156;51.508;5.406;2023-05-25T09:01:07;102691.03;;;19.06;65.16
54042;BME280;41156;51.508;5.406;2023-05-25T09:04:08;102686.41;;;19.44;65.85
54042;BME280;41156;51.508;5.406;2023-05-25T09:07:13;102701.03;;;19.37;65.37
54042;BME280;41156;51.508;5.406;2023-05-25T09:10:13;102691.09;;;18.99;65.13
54042;BME280;41156;51.508;5.406;2023-05-25T09:13:14;102689.38;;;18.55;65.08
54042;BME280;41156;51.508;5.406;2023-05-25T09:16:15;102695.50;;;18.25;65.33
54042;BME280;41156;51.508;5.406;2023-05-25T09:19:15;102692.50;;;18.01;65.40
54042;BME280;41156;51.508;5.406;2023-05-25T09:22:15;102689.84;;;17.81;65.22
54042;BME280;41156;51.508;5.406;2023-05-25T09:25:17;102692.88;;;17.66;65.86
54042;BME280;41156;51.508;5.406;2023-05-25T09:28:20;102696.31;;;17.48;66.01
54042;BME280;41156;51.508;5.406;2023-05-25T09:31:22;102694.66;;;17.41;65.73
54042;BME280;41156;51.508;5.406;2023-05-25T09:34:29;102695.94;;;17.38;65.18
54042;BME280;41156;51.508;5.406;2023-05-25T09:37:30;102694.72;;;17.27;66.76
54042;BME280;41156;51.508;5.406;2023-05-25T09:40:32;102701.03;;;17.21;66.62
54042;BME280;41156;51.508;5.406;2023-05-25T09:43:34;102708.38;;;17.27;66.75
54042;BME280;41156;51.508;5.406;2023-05-25T09:46:34;102699.94;;;17.35;66.61
54042;BME280;41156;51.508;5.406;2023-05-25T09:49:38;102694.66;;;17.47;66.69
54042;BME280;41156;51.508;5.406;2023-05-25T09:52:38;102695.22;;;17.56;65.79
54042;BME280;41156;51.508;5.406;2023-05-25T09:55:38;102693.72;;;17.60;66.20
54042;BME280;41156;51.508;5.406;2023-05-25T09:58:39;102698.75;;;17.70;66.47
54042;BME280;41156;51.508;5.406;2023-05-25T10:01:40;102708.81;;;17.76;65.00
54042;BME280;41156;51.508;5.406;2023-05-25T10:04:40;102706.53;;;17.66;64.64
54042;BME280;41156;51.508;5.406;2023-05-25T10:07:43;102710.53;;;17.70;64.78
54042;BME280;41156;51.508;5.406;2023-05-25T10:10:44;102700.41;;;17.78;64.96
54042;BME280;41156;51.508;5.406;2023-05-25T10:13:45;102707.13;;;17.75;64.89
54042;BME280;41156;51.508;5.406;2023-05-25T10:16:47;102703.53;;;17.88;65.09
54042;BME280;41156;51.508;5.406;2023-05-25T10:19:59;102703.41;;;18.08;64.47
54042;BME280;41156;51.508;5.406;2023-05-25T10:23:04;102704.16;;;18.22;63.85
54042;BME280;41156;51.508;5.406;2023-05-25T10:26:05;102703.53;;;18.20;63.90
54042;BME280;41156;51.508;5.406;2023-05-25T10:29:07;102707.97;;;18.21;63.51
54042;BME280;41156;51.508;5.406;2023-05-25T10:32:09;102705.22;;;18.21;63.82
54042;BME280;41156;51.508;5.406;2023-05-25T10:35:10;102704.75;;;18.30;63.76
54042;BME280;41156;51.508;5.406;2023-05-25T10:38:11;102708.47;;;18.36;64.08
54042;BME280;41156;51.508;5.406;2023-05-25T10:41:13;102712.31;;;18.28;63.55
54042;BME280;41156;51.508;5.406;2023-05-25T10:44:15;102711.84;;;18.06;63.21
54042;BME280;41156;51.508;5.406;2023-05-25T10:47:16;102711.66;;;18.01;63.64
54042;BME280;41156;51.508;5.406;2023-05-25T10:50:22;102717.13;;;18.01;63.24
54042;BME280;41156;51.508;5.406;2023-05-25T10:53:23;102704.03;;;18.10;61.89
54042;BME280;41156;51.508;5.406;2023-05-25T10:56:23;102714.75;;;18.11;62.76
54042;BME280;41156;51.508;5.406;2023-05-25T10:59:27;102708.41;;;18.18;60.89
54042;BME280;41156;51.508;5.406;2023-05-25T11:02:27;102710.88;;;18.26;62.27
54042;BME280;41156;51.508;5.406;2023-05-25T11:05:36;102710.69;;;18.21;60.28
54042;BME280;41156;51.508;5.406;2023-05-25T11:08:54;102714.31;;;18.15;62.00
54042;BME280;41156;51.508;5.406;2023-05-25T11:15:11;102706.44;;;18.25;61.22
54042;BME280;41156;51.508;5.406;2023-05-25T11:18:14;102702.94;;;18.68;60.53
54042;BME280;41156;51.508;5.406;2023-05-25T11:21:20;102693.25;;;19.34;59.55
54042;BME280;41156;51.508;5.406;2023-05-25T11:24:21;102695.75;;;19.54;58.11
54042;BME280;41156;51.508;5.406;2023-05-25T11:27:22;102698.19;;;19.63;59.03
54042;BME280;41156;51.508;5.406;2023-05-25T11:30:26;102692.09;;;19.60;57.59
54042;BME280;41156;51.508;5.406;2023-05-25T11:33:26;102695.38;;;19.51;58.47
54042;BME280;41156;51.508;5.406;2023-05-25T11:36:27;102690.28;;;19.36;59.07
54042;BME280;41156;51.508;5.406;2023-05-25T11:39:32;102683.75;;;19.37;59.18
54042;BME280;41156;51.508;5.406;2023-05-25T11:42:32;102680.94;;;19.44;58.53
54042;BME280;41156;51.508;5.406;2023-05-25T11:45:33;102676.88;;;19.46;57.19
54042;BME280;41156;51.508;5.406;2023-05-25T11:48:33;102667.22;;;19.92;58.50
54042;BME280;41156;51.508;5.406;2023-05-25T11:51:34;102671.50;;;20.30;56.47
54042;BME280;41156;51.508;5.406;2023-05-25T11:54:36;102665.19;;;20.42;56.21
54042;BME280;41156;51.508;5.406;2023-05-25T11:57:40;102665.41;;;20.28;55.72
54042;BME280;41156;51.508;5.406;2023-05-25T12:00:40;102673.91;;;20.08;55.54
54042;BME280;41156;51.508;5.406;2023-05-25T12:03:41;102672.34;;;19.89;56.27
54042;BME280;41156;51.508;5.406;2023-05-25T12:06:41;102669.53;;;19.77;55.37
54042;BME280;41156;51.508;5.406;2023-05-25T12:09:41;102667.19;;;19.62;56.74
54042;BME280;41156;51.508;5.406;2023-05-25T12:12:47;102665.75;;;19.41;56.70
54042;BME280;41156;51.508;5.406;2023-05-25T12:15:47;102658.94;;;19.32;56.74
54042;BME280;41156;51.508;5.406;2023-05-25T12:18:48;102657.94;;;19.26;56.36
54042;BME280;41156;51.508;5.406;2023-05-25T12:21:49;102666.66;;;19.35;56.10
54042;BME280;41156;51.508;5.406;2023-05-25T12:24:50;102654.78;;;19.41;57.44
54042;BME280;41156;51.508;5.406;2023-05-25T12:28:23;102658.13;;;19.43;56.48
54042;BME280;41156;51.508;5.406;2023-05-25T12:31:27;102648.84;;;19.44;56.71
54042;BME280;41156;51.508;5.406;2023-05-25T12:34:27;102649.44;;;19.95;55.78
54042;BME280;41156;51.508;5.406;2023-05-25T12:37:28;102648.44;;;20.31;55.35
54042;BME280;41156;51.508;5.406;2023-05-25T12:40:29;102649.53;;;20.42;54.63
54042;BME280;41156;51.508;5.406;2023-05-25T12:43:39;102658.59;;;20.31;53.37
54042;BME280;41156;51.508;5.406;2023-05-25T12:46:41;102653.78;;;20.14;54.69
54042;BME280;41156;51.508;5.406;2023-05-25T12:49:45;102649.00;;;20.10;54.50
54042;BME280;41156;51.508;5.406;2023-05-25T12:52:47;102648.06;;;20.28;53.50
54042;BME280;41156;51.508;5.406;2023-05-25T12:55:47;102647.59;;;20.31;53.18
54042;BME280;41156;51.508;5.406;2023-05-25T12:58:47;102649.50;;;20.19;53.97
54042;BME280;41156;51.508;5.406;2023-05-25T13:01:48;102638.41;;;20.13;54.10
54042;BME280;41156;51.508;5.406;2023-05-25T13:04:48;102641.09;;;20.02;54.11
54042;BME280;41156;51.508;5.406;2023-05-25T13:07:49;102629.03;;;19.91;54.16
54042;BME280;41156;51.508;5.406;2023-05-25T13:10:49;102633.06;;;19.88;53.61
54042;BME280;41156;51.508;5.406;2023-05-25T13:13:50;102631.81;;;20.03;54.10
54042;BME280;41156;51.508;5.406;2023-05-25T13:16:53;102632.47;;;20.52;53.67
54042;BME280;41156;51.508;5.406;2023-05-25T13:19:53;102625.78;;;20.95;52.20
54042;BME280;41156;51.508;5.406;2023-05-25T13:22:53;102631.84;;;21.09;52.57
54042;BME280;41156;51.508;5.406;2023-05-25T13:25:57;102621.72;;;20.86;52.49
54042;BME280;41156;51.508;5.406;2023-05-25T13:28:57;102628.66;;;20.65;53.36
54042;BME280;41156;51.508;5.406;2023-05-25T13:31:57;102627.81;;;20.41;53.81
54042;BME280;41156;51.508;5.406;2023-05-25T13:34:58;102617.41;;;20.43;53.52
54042;BME280;41156;51.508;5.406;2023-05-25T13:37:59;102619.09;;;20.44;54.36
54042;BME280;41156;51.508;5.406;2023-05-25T13:40:59;102619.22;;;20.37;53.70
54042;BME280;41156;51.508;5.406;2023-05-25T13:44:00;102610.97;;;20.61;53.68
54042;BME280;41156;51.508;5.406;2023-05-25T13:47:01;102621.03;;;20.79;53.65
54042;BME280;41156;51.508;5.406;2023-05-25T13:50:01;102616.00;;;20.87;52.94
54042;BME280;41156;51.508;5.406;2023-05-25T13:53:01;102617.19;;;20.68;51.82
54042;BME280;41156;51.508;5.406;2023-05-25T13:56:02;102616.03;;;20.64;53.15
54042;BME280;41156;51.508;5.406;2023-05-25T13:59:02;102617.94;;;20.63;52.39
54042;BME280;41156;51.508;5.406;2023-05-25T14:02:02;102625.53;;;20.61;51.34
54042;BME280;41156;51.508;5.406;2023-05-25T14:05:03;102616.69;;;20.59;51.68
54042;BME280;41156;51.508;5.406;2023-05-25T14:08:03;102613.00;;;20.54;52.01
54042;BME280;41156;51.508;5.406;2023-05-25T14:11:05;102613.03;;;20.65;51.76
54042;BME280;41156;51.508;5.406;2023-05-25T14:14:06;102603.22;;;20.69;50.90
54042;BME280;41156;51.508;5.406;2023-05-25T14:17:07;102608.25;;;20.73;50.35
54042;BME280;41156;51.508;5.406;2023-05-25T14:20:08;102608.00;;;20.74;49.55
54042;BME280;41156;51.508;5.406;2023-05-25T14:23:08;102608.34;;;20.78;50.33
54042;BME280;41156;51.508;5.406;2023-05-25T14:26:08;102600.13;;;20.78;50.56
54042;BME280;41156;51.508;5.406;2023-05-25T14:29:09;102605.94;;;20.93;50.52
54042;BME280;41156;51.508;5.406;2023-05-25T14:32:09;102608.56;;;20.88;49.77
54042;BME280;41156;51.508;5.406;2023-05-25T14:35:10;102609.56;;;20.82;50.22
54042;BME280;41156;51.508;5.406;2023-05-25T14:38:10;102602.00;;;20.89;50.53
54042;BME280;41156;51.508;5.406;2023-05-25T14:41:10;102613.94;;;20.95;50.45
54042;BME280;41156;51.508;5.406;2023-05-25T14:44:11;102605.59;;;20.89;49.31
54042;BME280;41156;51.508;5.406;2023-05-25T14:47:11;102607.75;;;20.87;50.98
54042;BME280;41156;51.508;5.406;2023-05-25T14:50:11;102610.53;;;20.64;50.59
54042;BME280;41156;51.508;5.406;2023-05-25T14:53:12;102606.44;;;20.43;50.48
54042;BME280;41156;51.508;5.406;2023-05-25T14:56:12;102599.53;;;20.28;51.31
54042;BME280;41156;51.508;5.406;2023-05-25T14:59:13;102594.38;;;20.44;51.13
54042;BME280;41156;51.508;5.406;2023-05-25T15:02:13;102591.72;;;20.96;49.81
54042;BME280;41156;51.508;5.406;2023-05-25T15:05:13;102591.22;;;21.52;48.64
54042;BME280;41156;51.508;5.406;2023-05-25T15:08:14;102591.34;;;21.45;48.85
54042;BME280;41156;51.508;5.406;2023-05-25T15:11:14;102599.34;;;21.06;47.32
54042;BME280;41156;51.508;5.406;2023-05-25T15:14:14;102596.88;;;20.81;49.23
54042;BME280;41156;51.508;5.406;2023-05-25T15:17:15;102593.28;;;20.57;49.78
54042;BME280;41156;51.508;5.406;2023-05-25T15:20:15;102594.88;;;20.64;50.12
54042;BME280;41156;51.508;5.406;2023-05-25T15:23:16;102591.59;;;21.03;49.44
54042;BME280;41156;51.508;5.406;2023-05-25T15:26:16;102588.22;;;21.41;48.68
54042;BME280;41156;51.508;5.406;2023-05-25T15:29:16;102581.47;;;21.78;46.06
54042;BME280;41156;51.508;5.406;2023-05-25T15:32:17;102574.41;;;22.16;47.31
54042;BME280;41156;51.508;5.406;2023-05-25T15:35:17;102577.19;;;22.50;45.43
54042;BME280;41156;51.508;5.406;2023-05-25T15:38:18;102574.25;;;22.57;46.17
54042;BME280;41156;51.508;5.406;2023-05-25T15:41:18;102573.75;;;22.43;45.86
54042;BME280;41156;51.508;5.406;2023-05-25T15:44:18;102569.66;;;22.45;45.90
54042;BME280;41156;51.508;5.406;2023-05-25T15:47:20;102578.34;;;22.76;45.72
54042;BME280;41156;51.508;5.406;2023-05-25T15:50:21;102581.16;;;22.81;45.93
54042;BME280;41156;51.508;5.406;2023-05-25T15:53:22;102578.97;;;22.61;45.21